Etusivu
METAR-TAF:

METAR-TAF

Lentoasemat :

Raymond, Mississippi, Yhdysvallat

Leveyspiiri: 32-18-16N, Pituuspiiri: 090-24-38W, korkeus merenpinnasta: 75 m

Tämänhetkinen sää

Tämä raportti tehtiin 14 minuuttia sitten, kello 13.35 UTC
Tuuli 6 kn etelästä/lounaasta puuskistuen 12 kn:hen
Lämpötila 17°C
Kosteus 100%
Ilmanpaine 1011 hPa
Näkyvyys: 12.9 km
Hajanaisia pilviä 100 ft:n korkeudessa
Hajonneita pilviä 1000 ft:n korkeudessa
Pilvistä 3900 ft:n korkeudessa
ukkosta näköpiirissä, sadetta

METAR: KJVW 251335Z AUTO 21006G12KT 8SM VCTS RA SCT001 BKN010 OVC039 17/17 A2985 RMK AO2 LTG DSNT ALQDS

Aika: 08:49 (13:49 UTC)


TAF: puuttuu

Säähavainnot ja -ennusteet yli 4000 lentoasemalta (METAR- ja TAF-raportit).

Käytössä olevat sääasemat on merkitty karttaan keltaisilla ja punaisilla pisteillä.

Aseta hiiri pisteen päälle nähdäksesi sääaseman nimen.

Klikkaa sitten nähdäksesi säähavainnot ja -ennusteet.

Kartan vaihtaminen: klikkaa mustalla rastilla varustettuja vihreitä pisteitä, niin voit zoomata sisään; viivalla varustettua vihreää pistettä, niin voit zoomata ulos tai vihreitä nuolia, niin pääset viereisille kartoille.


METAR-TAF: